Time;durP1;ratioP1;P1;durP2;ratioP2;P2;SDS_P1;SDS_P2;PMS_P1;PMS_P2;Temp;Humidity;BMP_temperature;BMP_pressure;BME280_temperature;BME280_humidity;BME280_pressure;Samples;Min_cycle;Max_cycle;Signal;HPM_P1;HPM_P2
2023/06/03 00:02:41;;;;;;;;;;;;;;;9.50;39.06;101709.80;105568;1297;73210;-86
2023/06/03 00:05:27;;;;;;;;;;;;;;;9.42;39.11;101711.81;105540;1297;67754;-86
2023/06/03 00:08:13;;;;;;;;;;;;;;;9.35;39.19;101711.61;105601;1297;71822;-86
2023/06/03 00:10:59;;;;;;;;;;;;;;;9.29;39.28;101712.96;105540;1297;58416;-86
2023/06/03 00:13:45;;;;;;;;;;;;;;;9.28;39.39;101713.13;105492;1297;59936;-86
2023/06/03 00:16:34;;;;;;;;;;;;;;;9.23;39.42;101719.63;105553;1297;73386;-86
2023/06/03 00:19:20;;;;;;;;;;;;;;;9.17;39.52;101719.75;105464;1299;68479;-86
2023/06/03 00:22:06;;;;;;;;;;;;;;;9.14;39.52;101718.70;105571;1299;72767;-87
2023/06/03 00:24:52;;;;;;;;;;;;;;;9.07;39.59;101720.89;105568;1301;58957;-86
2023/06/03 00:27:39;;;;;;;;;;;;;;;9.02;39.74;101721.52;105622;1297;59363;-86
2023/06/03 00:30:25;;;;;;;;;;;;;;;9.00;39.72;101721.00;105503;1299;74015;-86
2023/06/03 00:33:11;;;;;;;;;;;;;;;8.96;39.80;101720.61;105617;1302;69052;-86
2023/06/03 00:35:57;;;;;;;;;;;;;;;8.88;39.94;101724.50;105575;1297;71751;-86
2023/06/03 00:38:43;;;;;;;;;;;;;;;8.83;40.00;101726.71;105602;1297;59108;-87
2023/06/03 00:41:28;;;;;;;;;;;;;;;8.78;39.97;101727.36;105631;1297;59854;-86
2023/06/03 00:44:14;;;;;;;;;;;;;;;8.70;40.10;101726.26;105570;1297;73312;-86
2023/06/03 00:47:01;;;;;;;;;;;;;;;8.61;40.18;101730.47;105630;1297;68512;-86
2023/06/03 00:49:47;;;;;;;;;;;;;;;8.55;40.14;101731.09;105550;1298;71499;-86
2023/06/03 00:52:35;;;;;;;;;;;;;;;8.48;40.08;101734.10;105431;1299;59377;-87
2023/06/03 00:55:21;;;;;;;;;;;;;;;8.37;40.06;101735.52;105598;1297;59002;-86
2023/06/03 00:58:07;;;;;;;;;;;;;;;8.30;40.28;101740.59;105588;1297;74418;-86
2023/06/03 01:00:53;;;;;;;;;;;;;;;8.20;40.21;101741.87;105511;1302;67207;-86
2023/06/03 01:03:42;;;;;;;;;;;;;;;8.11;40.40;101740.72;105567;1298;72507;-86
2023/06/03 01:06:45;;;;;;;;;;;;;;;7.98;40.49;101746.58;105208;1299;153775;-86
2023/06/03 01:09:31;;;;;;;;;;;;;;;7.92;40.66;101745.13;105614;1298;59168;-86
2023/06/03 01:12:24;;;;;;;;;;;;;;;7.91;40.78;101746.14;105643;1298;74980;-86
2023/06/03 01:15:15;;;;;;;;;;;;;;;7.89;40.73;101750.91;105634;1296;66298;-86
2023/06/03 01:18:04;;;;;;;;;;;;;;;7.88;40.87;101754.50;105517;1299;72575;-86
2023/06/03 01:20:50;;;;;;;;;;;;;;;7.85;40.80;101756.35;105471;1297;59045;-86
2023/06/03 01:23:36;;;;;;;;;;;;;;;7.80;40.88;101756.30;105668;1296;59179;-86
2023/06/03 01:26:22;;;;;;;;;;;;;;;7.71;40.78;101756.71;105663;1297;74947;-86
2023/06/03 01:29:08;;;;;;;;;;;;;;;7.65;40.82;101756.96;105528;1303;68945;-86
2023/06/03 01:31:56;;;;;;;;;;;;;;;7.56;41.04;101761.63;105471;1298;70469;-86
2023/06/03 01:34:42;;;;;;;;;;;;;;;7.47;41.05;101761.48;105404;1297;59046;-86
2023/06/03 01:37:29;;;;;;;;;;;;;;;7.38;41.13;101764.10;105479;1300;60687;-86
2023/06/03 01:40:16;;;;;;;;;;;;;;;7.32;41.17;101761.61;105483;1299;73505;-86
2023/06/03 01:43:02;;;;;;;;;;;;;;;7.26;41.37;101763.60;105575;1297;68664;-86
2023/06/03 01:45:48;;;;;;;;;;;;;;;7.22;41.25;101763.70;105557;1298;72534;-86
2023/06/03 01:48:34;;;;;;;;;;;;;;;7.17;41.50;101767.40;105585;1298;59299;-86
2023/06/03 01:51:24;;;;;;;;;;;;;;;7.17;41.47;101768.77;105489;1302;59033;-86
2023/06/03 01:54:10;;;;;;;;;;;;;;;7.14;41.35;101768.71;105573;1299;72628;-85
2023/06/03 01:56:56;;;;;;;;;;;;;;;7.09;41.46;101769.48;105488;1297;68544;-86
2023/06/03 01:59:42;;;;;;;;;;;;;;;7.03;41.42;101769.55;105537;1297;72595;-86
2023/06/03 02:02:28;;;;;;;;;;;;;;;6.95;41.31;101769.42;105556;1300;59201;-85
2023/06/03 02:05:14;;;;;;;;;;;;;;;6.84;41.36;101771.61;105619;1297;60492;-86
2023/06/03 02:08:00;;;;;;;;;;;;;;;6.74;41.30;101777.12;105532;1297;73186;-85
2023/06/03 02:10:46;;;;;;;;;;;;;;;6.65;41.40;101777.81;105530;1298;68521;-85
2023/06/03 02:13:32;;;;;;;;;;;;;;;6.57;41.51;101779.20;105526;1298;71394;-86
2023/06/03 02:16:20;;;;;;;;;;;;;;;6.52;41.63;101780.48;105637;1297;59368;-86
2023/06/03 02:19:15;;;;;;;;;;;;;;;6.49;41.76;101782.98;105559;1297;60012;-86
2023/06/03 02:22:01;;;;;;;;;;;;;;;6.40;41.82;101787.10;105544;1297;73450;-86
2023/06/03 02:24:47;;;;;;;;;;;;;;;6.35;42.02;101785.79;105566;1299;68118;-86
2023/06/03 02:27:33;;;;;;;;;;;;;;;6.33;42.00;101785.75;105615;1297;72199;-86
2023/06/03 02:30:19;;;;;;;;;;;;;;;6.27;42.00;101790.08;105524;1299;58976;-86
2023/06/03 02:33:05;;;;;;;;;;;;;;;6.23;42.14;101789.52;105593;1300;58973;-86
2023/06/03 02:35:51;;;;;;;;;;;;;;;6.20;41.99;101792.89;105588;1297;75872;-86
2023/06/03 02:38:37;;;;;;;;;;;;;;;6.13;42.06;101799.74;105424;1297;68675;-86
2023/06/03 02:41:23;;;;;;;;;;;;;;;6.03;42.05;101805.02;105504;1298;71683;-86
2023/06/03 02:44:09;;;;;;;;;;;;;;;5.96;42.12;101813.77;105562;1297;59001;-86
2023/06/03 02:46:55;;;;;;;;;;;;;;;5.88;42.19;101817.32;105550;1297;59954;-86
2023/06/03 02:49:41;;;;;;;;;;;;;;;5.83;42.09;101821.82;105443;1299;73981;-86
2023/06/03 02:52:27;;;;;;;;;;;;;;;5.81;42.32;101823.30;105589;1297;68744;-86
2023/06/03 02:55:13;;;;;;;;;;;;;;;5.83;42.43;101823.01;105419;1299;71144;-86
2023/06/03 02:58:00;;;;;;;;;;;;;;;5.83;42.42;101822.51;105522;1297;58942;-86
2023/06/03 03:00:46;;;;;;;;;;;;;;;5.79;42.46;101825.98;105475;1299;59374;-86
2023/06/03 03:03:35;;;;;;;;;;;;;;;5.78;42.36;101825.81;105610;1297;72992;-86
2023/06/03 03:06:22;;;;;;;;;;;;;;;5.73;42.50;101825.34;105565;1299;67982;-86
2023/06/03 03:09:08;;;;;;;;;;;;;;;5.74;42.49;101828.27;105592;1297;72040;-86
2023/06/03 03:11:54;;;;;;;;;;;;;;;5.66;42.55;101831.89;105501;1298;59167;-86
2023/06/03 03:14:40;;;;;;;;;;;;;;;5.53;42.68;101833.46;105609;1297;58911;-86
2023/06/03 03:17:26;;;;;;;;;;;;;;;5.48;42.85;101832.14;105541;1299;75972;-86
2023/06/03 03:20:12;;;;;;;;;;;;;;;5.50;42.87;101830.65;105551;1297;69149;-86
2023/06/03 03:22:59;;;;;;;;;;;;;;;5.51;43.11;101833.74;105536;1297;71233;-86
2023/06/03 03:25:45;;;;;;;;;;;;;;;5.61;43.10;101838.95;105417;1297;59308;-86
2023/06/03 03:28:31;;;;;;;;;;;;;;;5.69;43.22;101843.25;105492;1299;59320;-86
2023/06/03 03:31:18;;;;;;;;;;;;;;;5.76;43.17;101841.31;105600;1298;72922;-86
2023/06/03 03:34:07;;;;;;;;;;;;;;;5.80;43.25;101838.85;105576;1297;66959;-86
2023/06/03 03:36:53;;;;;;;;;;;;;;;5.82;43.29;101843.18;105555;1299;71400;-86
2023/06/03 03:39:38;;;;;;;;;;;;;;;5.74;43.29;101844.36;105583;1297;58935;-86
2023/06/03 03:42:24;;;;;;;;;;;;;;;5.73;43.43;101846.73;105472;1297;59850;-87
2023/06/03 03:45:16;;;;;;;;;;;;;;;5.77;43.58;101846.82;105582;1298;74540;-86
2023/06/03 03:48:10;;;;;;;;;;;;;;;5.82;43.62;101846.44;105546;1299;67514;-86
2023/06/03 03:50:56;;;;;;;;;;;;;;;5.85;43.59;101846.51;105481;1297;71232;-86
2023/06/03 03:53:44;;;;;;;;;;;;;;;5.91;43.75;101846.86;105497;1295;59054;-86
2023/06/03 03:56:30;;;;;;;;;;;;;;;5.96;43.82;101852.11;105498;1297;59543;-86
2023/06/03 03:59:16;;;;;;;;;;;;;;;6.06;43.89;101850.95;105606;1297;74601;-86
2023/06/03 04:02:02;;;;;;;;;;;;;;;6.16;43.98;101852.02;105564;1297;67466;-86
2023/06/03 04:04:48;;;;;;;;;;;;;;;6.23;44.09;101853.89;105527;1297;72459;-86
2023/06/03 04:07:38;;;;;;;;;;;;;;;6.34;44.22;101855.47;105529;1297;59343;-86
2023/06/03 04:10:24;;;;;;;;;;;;;;;6.56;44.30;101856.61;105586;1297;59099;-86
2023/06/03 04:13:10;;;;;;;;;;;;;;;6.75;44.38;101856.82;105574;1298;74296;-86
2023/06/03 04:16:00;;;;;;;;;;;;;;;6.83;44.44;101855.08;105496;1297;67832;-86
2023/06/03 04:18:46;;;;;;;;;;;;;;;6.97;44.41;101854.82;105582;1297;71286;-86
2023/06/03 04:21:37;;;;;;;;;;;;;;;7.06;44.60;101858.59;105504;1300;58933;-86
2023/06/03 04:24:24;;;;;;;;;;;;;;;7.15;44.76;101859.61;105598;1298;59848;-86
2023/06/03 04:27:10;;;;;;;;;;;;;;;7.22;44.75;101857.69;105512;1297;74424;-87
2023/06/03 04:29:56;;;;;;;;;;;;;;;7.36;44.92;101857.39;105557;1297;67375;-87
2023/06/03 04:32:42;;;;;;;;;;;;;;;7.47;45.05;101860.67;105534;1298;72545;-85
2023/06/03 04:35:28;;;;;;;;;;;;;;;7.53;45.01;101860.77;105562;1299;59384;-85
2023/06/03 04:38:18;;;;;;;;;;;;;;;7.59;45.15;101861.55;105594;1297;58996;-85
2023/06/03 04:41:04;;;;;;;;;;;;;;;7.68;45.30;101866.84;105545;1297;72609;-86
2023/06/03 04:43:52;;;;;;;;;;;;;;;7.81;45.36;101861.02;105549;1297;68778;-87
2023/06/03 04:46:39;;;;;;;;;;;;;;;7.93;45.39;101864.64;105554;1297;71540;-86
2023/06/03 04:49:27;;;;;;;;;;;;;;;8.04;45.51;101864.10;105573;1298;58990;-86
2023/06/03 04:52:13;;;;;;;;;;;;;;;8.16;45.53;101860.48;105607;1297;59001;-86
2023/06/03 04:54:58;;;;;;;;;;;;;;;8.32;45.51;101858.31;105495;1297;73238;-86
2023/06/03 04:57:47;;;;;;;;;;;;;;;8.50;45.68;101855.11;105530;1297;68804;-86
2023/06/03 05:00:33;;;;;;;;;;;;;;;8.75;45.61;101858.33;105460;1297;71406;-86
2023/06/03 05:03:19;;;;;;;;;;;;;;;9.15;45.83;101862.86;98005;1297;5003243;-86
2023/06/03 05:06:10;;;;;;;;;;;;;;;9.74;45.79;101862.14;105487;1297;59046;-86
2023/06/03 05:08:56;;;;;;;;;;;;;;;10.47;45.78;101864.48;105477;1297;73234;-86
2023/06/03 05:11:42;;;;;;;;;;;;;;;11.24;45.54;101865.52;105468;1297;67544;-86
2023/06/03 05:14:28;;;;;;;;;;;;;;;11.92;45.24;101862.92;105494;1297;72134;-86
2023/06/03 05:17:14;;;;;;;;;;;;;;;12.70;45.07;101857.63;105539;1297;59063;-87
2023/06/03 05:20:00;;;;;;;;;;;;;;;13.52;44.78;101860.20;105467;1299;60025;-87
2023/06/03 05:22:46;;;;;;;;;;;;;;;14.32;44.49;101862.51;105515;1297;75742;-86
2023/06/03 05:25:32;;;;;;;;;;;;;;;14.98;44.15;101864.79;105566;1297;68265;-87
2023/06/03 05:28:18;;;;;;;;;;;;;;;15.49;44.11;101863.82;105532;1297;71605;-87
2023/06/03 05:31:04;;;;;;;;;;;;;;;16.08;44.07;101865.72;105455;1299;58401;-88
2023/06/03 05:33:50;;;;;;;;;;;;;;;16.62;43.94;101864.65;105521;1299;59410;-87
2023/06/03 05:36:36;;;;;;;;;;;;;;;16.98;43.61;101863.52;105542;1297;73223;-87
2023/06/03 05:39:22;;;;;;;;;;;;;;;17.23;43.69;101862.55;105554;1299;67401;-87
2023/06/03 05:42:08;;;;;;;;;;;;;;;17.49;43.25;101864.38;105488;1297;71399;-87
2023/06/03 05:44:54;;;;;;;;;;;;;;;17.48;43.02;101862.31;105580;1297;58949;-88
2023/06/03 05:47:40;;;;;;;;;;;;;;;17.73;43.06;101862.38;105493;1297;59895;-87
2023/06/03 05:50:26;;;;;;;;;;;;;;;18.08;43.16;101862.30;105463;1297;74843;-87
2023/06/03 05:53:12;;;;;;;;;;;;;;;18.43;43.16;101866.02;105407;1298;67596;-87
2023/06/03 05:55:58;;;;;;;;;;;;;;;18.82;43.03;101863.14;105372;1297;71568;-87
2023/06/03 05:58:45;;;;;;;;;;;;;;;19.22;42.83;101864.67;105463;1299;59135;-87
2023/06/03 06:01:32;;;;;;;;;;;;;;;19.43;42.53;101865.02;105504;1297;60026;-87
2023/06/03 06:04:19;;;;;;;;;;;;;;;19.65;42.24;101868.54;105550;1297;72794;-88
2023/06/03 06:07:04;;;;;;;;;;;;;;;19.59;41.73;101868.18;105487;1300;69260;-87
2023/06/03 06:09:50;;;;;;;;;;;;;;;19.54;41.77;101873.10;105506;1297;70916;-87
2023/06/03 06:12:36;;;;;;;;;;;;;;;19.42;41.61;101876.26;105407;1297;59534;-87
2023/06/03 06:15:22;;;;;;;;;;;;;;;19.58;41.76;101874.36;105489;1297;59198;-87
2023/06/03 06:18:08;;;;;;;;;;;;;;;19.89;41.21;101878.17;105527;1297;73393;-88
2023/06/03 06:20:54;;;;;;;;;;;;;;;20.24;40.98;101876.75;105253;1297;167708;-88
2023/06/03 06:23:40;;;;;;;;;;;;;;;20.73;40.81;101883.00;105483;1297;72624;-87
2023/06/03 06:26:27;;;;;;;;;;;;;;;21.28;40.52;101878.55;105421;1297;59120;-88
2023/06/03 06:29:12;;;;;;;;;;;;;;;21.63;39.76;101876.03;105524;1297;59039;-87
2023/06/03 06:31:59;;;;;;;;;;;;;;;21.89;39.69;101881.06;105603;1297;72338;-88
2023/06/03 06:34:46;;;;;;;;;;;;;;;22.43;39.44;101880.23;105507;1297;67407;-88
2023/06/03 06:37:32;;;;;;;;;;;;;;;23.26;39.67;101884.94;105547;1300;71425;-87
2023/06/03 06:40:19;;;;;;;;;;;;;;;23.95;39.27;101879.70;105384;1297;59117;-86
2023/06/03 06:43:05;;;;;;;;;;;;;;;24.54;38.99;101880.77;105360;1303;59440;-85
2023/06/03 06:45:54;;;;;;;;;;;;;;;24.96;38.58;101879.48;105270;1300;364318;-85
2023/06/03 06:48:40;;;;;;;;;;;;;;;24.92;38.95;101884.11;105497;1297;66400;-86
2023/06/03 06:51:28;;;;;;;;;;;;;;;25.22;38.98;101879.62;105566;1297;71437;-86
2023/06/03 06:54:15;;;;;;;;;;;;;;;25.42;38.80;101881.80;105590;1297;58929;-86
2023/06/03 06:57:01;;;;;;;;;;;;;;;25.63;37.99;101882.83;105549;1297;59031;-86
2023/06/03 06:59:47;;;;;;;;;;;;;;;26.17;37.33;101878.36;105517;1297;73495;-86
2023/06/03 07:02:33;;;;;;;;;;;;;;;26.93;36.84;101877.63;105476;1297;67365;-86
2023/06/03 07:05:19;;;;;;;;;;;;;;;27.50;35.53;101876.67;105590;1297;71121;-86
2023/06/03 07:08:05;;;;;;;;;;;;;;;27.96;36.06;101874.61;105523;1297;59259;-86
2023/06/03 07:10:56;;;;;;;;;;;;;;;28.47;35.14;101875.79;105488;1297;58892;-86
2023/06/03 07:13:42;;;;;;;;;;;;;;;29.02;35.49;101876.95;105478;1297;74138;-86
2023/06/03 07:16:28;;;;;;;;;;;;;;;29.61;34.50;101874.06;105475;1297;68739;-86
2023/06/03 07:19:14;;;;;;;;;;;;;;;30.29;34.91;101874.14;105561;1297;73517;-86
2023/06/03 07:22:01;;;;;;;;;;;;;;;29.89;34.94;101875.66;105521;1297;59260;-87
2023/06/03 07:24:47;;;;;;;;;;;;;;;29.55;35.16;101876.89;105551;1297;59213;-86
2023/06/03 07:27:33;;;;;;;;;;;;;;;28.93;34.85;101873.49;105565;1297;73862;-86
2023/06/03 07:30:19;;;;;;;;;;;;;;;28.53;34.82;101873.38;105497;1298;68617;-86
2023/06/03 07:33:06;;;;;;;;;;;;;;;29.00;33.50;101870.33;105504;1299;72255;-87
2023/06/03 07:35:53;;;;;;;;;;;;;;;28.02;33.22;101868.30;105449;1298;59316;-86
2023/06/03 07:38:39;;;;;;;;;;;;;;;27.10;32.85;101871.88;105431;1299;59780;-86
2023/06/03 07:41:34;;;;;;;;;;;;;;;26.67;33.08;101862.48;105512;1297;73173;-86
2023/06/03 07:44:29;;;;;;;;;;;;;;;27.99;32.74;101859.48;105514;1297;68548;-86
2023/06/03 07:47:16;;;;;;;;;;;;;;;29.76;31.89;101861.69;105507;1297;72465;-86
2023/06/03 07:50:02;;;;;;;;;;;;;;;31.52;31.20;101865.02;105562;1297;59323;-86
2023/06/03 07:52:51;;;;;;;;;;;;;;;33.03;30.66;101862.39;105518;1297;60091;-86
2023/06/03 07:55:39;;;;;;;;;;;;;;;33.71;30.25;101864.45;105438;1297;73317;-84
2023/06/03 07:58:25;;;;;;;;;;;;;;;34.77;30.53;101859.71;105496;1297;68859;-84
2023/06/03 08:01:15;;;;;;;;;;;;;;;35.76;29.48;101867.05;105452;1297;71565;-85
2023/06/03 08:04:13;;;;;;;;;;;;;;;35.60;28.58;101866.89;105507;1299;59709;-85
2023/06/03 08:07:02;;;;;;;;;;;;;;;35.96;28.62;101865.48;105540;1297;59055;-85
2023/06/03 08:09:48;;;;;;;;;;;;;;;36.59;28.77;101859.67;105525;1297;73406;-85
2023/06/03 08:12:34;;;;;;;;;;;;;;;37.05;28.70;101859.49;105519;1297;67338;-85
2023/06/03 08:15:27;;;;;;;;;;;;;;;37.53;28.08;101860.99;105454;1297;72553;-85
2023/06/03 08:18:31;;;;;;;;;;;;;;;37.98;28.43;101854.12;105513;1297;59240;-84
2023/06/03 08:21:18;;;;;;;;;;;;;;;38.64;27.49;101855.78;105572;1297;59183;-84
2023/06/03 08:24:05;;;;;;;;;;;;;;;38.98;27.14;101852.11;105430;1297;74486;-84
2023/06/03 08:26:51;;;;;;;;;;;;;;;39.83;27.58;101851.45;105452;1297;69477;-84
2023/06/03 08:29:37;;;;;;;;;;;;;;;40.78;27.24;101852.34;105534;1297;71449;-85
2023/06/03 08:32:23;;;;;;;;;;;;;;;41.29;26.93;101853.16;105455;1297;59431;-85
2023/06/03 08:35:10;;;;;;;;;;;;;;;41.51;26.82;101853.37;105444;1299;59130;-85
2023/06/03 08:37:56;;;;;;;;;;;;;;;41.89;26.10;101850.98;105421;1297;75482;-85
2023/06/03 08:40:47;;;;;;;;;;;;;;;42.09;25.86;101849.92;105414;1297;69422;-85
2023/06/03 08:43:36;;;;;;;;;;;;;;;42.31;25.36;101851.72;105530;1297;72182;-86
2023/06/03 08:46:45;;;;;;;;;;;;;;;42.52;25.07;101848.71;105482;1297;59106;-86
2023/06/03 08:49:37;;;;;;;;;;;;;;;42.50;24.60;101845.66;105551;1297;59761;-86
2023/06/03 08:52:23;;;;;;;;;;;;;;;42.66;24.40;101846.52;105563;1297;73369;-85
2023/06/03 08:55:11;;;;;;;;;;;;;;;42.10;23.54;101849.23;105517;1297;66756;-85
2023/06/03 08:58:03;;;;;;;;;;;;;;;39.31;23.25;101840.14;105485;1297;73037;-85
2023/06/03 09:00:55;;;;;;;;;;;;;;;35.88;23.51;101837.33;105349;1299;59804;-85
2023/06/03 09:03:42;;;;;;;;;;;;;;;33.02;23.18;101829.16;105540;1297;59366;-85
2023/06/03 09:06:28;;;;;;;;;;;;;;;30.68;23.08;101825.89;105355;1297;74525;-84
2023/06/03 09:09:14;;;;;;;;;;;;;;;29.00;22.96;101825.36;105545;1297;67513;-84
2023/06/03 09:12:02;;;;;;;;;;;;;;;27.29;22.48;101828.30;105601;1297;72410;-84
2023/06/03 09:14:49;;;;;;;;;;;;;;;25.61;22.35;101822.35;105553;1297;59217;-84
2023/06/03 09:17:35;;;;;;;;;;;;;;;24.14;22.45;101814.73;105510;1297;59303;-84
2023/06/03 09:20:23;;;;;;;;;;;;;;;23.17;22.48;101809.70;105555;1298;73392;-84
2023/06/03 09:23:11;;;;;;;;;;;;;;;22.60;22.57;101810.03;105503;1298;67805;-84
2023/06/03 09:25:57;;;;;;;;;;;;;;;21.98;22.30;101813.95;98243;1297;10002027;-86
2023/06/03 09:28:44;;;;;;;;;;;;;;;21.24;22.50;101813.08;105511;1297;59342;-85
2023/06/03 09:31:30;;;;;;;;;;;;;;;20.77;22.53;101810.80;105424;1297;74687;-86
2023/06/03 09:34:16;;;;;;;;;;;;;;;20.30;22.56;101815.41;105461;1297;68413;-85
2023/06/03 09:37:09;;;;;;;;;;;;;;;19.66;22.67;101816.52;105454;1297;72593;-85
2023/06/03 09:39:54;;;;;;;;;;;;;;;19.07;22.73;101811.34;105437;1297;59056;-88
2023/06/03 09:42:41;;;;;;;;;;;;;;;18.66;22.93;101804.94;105438;1300;59437;-85
2023/06/03 09:45:31;;;;;;;;;;;;;;;18.27;22.90;101808.71;105533;1297;75001;-85
2023/06/03 09:48:23;;;;;;;;;;;;;;;18.05;22.99;101807.43;105402;1297;69238;-85
2023/06/03 09:51:08;;;;;;;;;;;;;;;17.84;23.23;101801.55;105524;1296;71560;-85
2023/06/03 09:54:08;;;;;;;;;;;;;;;17.67;23.24;101798.55;105458;1300;59378;-85
2023/06/03 09:57:07;;;;;;;;;;;;;;;17.54;23.26;101800.44;105461;1299;60121;-85
2023/06/03 10:00:04;;;;;;;;;;;;;;;17.43;23.37;101798.11;105443;1297;73798;-86
2023/06/03 10:02:49;;;;;;;;;;;;;;;17.39;23.35;101796.63;105485;1297;67398;-85
2023/06/03 10:05:36;;;;;;;;;;;;;;;17.42;23.58;101798.48;105398;1302;71426;-86
2023/06/03 10:08:29;;;;;;;;;;;;;;;17.39;23.43;101790.88;105405;1297;59535;-85
2023/06/03 10:11:14;;;;;;;;;;;;;;;17.28;23.73;101789.95;105302;1297;156398;-86
2023/06/03 10:14:01;;;;;;;;;;;;;;;17.30;24.00;101787.09;105430;1297;74170;-85
2023/06/03 10:17:06;;;;;;;;;;;;;;;17.28;23.73;101788.03;105452;1297;67351;-85
2023/06/03 10:19:52;;;;;;;;;;;;;;;17.28;23.80;101788.88;105433;1297;71311;-85
2023/06/03 10:22:42;;;;;;;;;;;;;;;17.30;24.05;101785.70;105418;1297;59023;-85
2023/06/03 10:25:30;;;;;;;;;;;;;;;17.26;24.06;101786.52;105471;1297;60432;-85
2023/06/03 10:28:16;;;;;;;;;;;;;;;17.19;23.97;101782.31;105468;1297;72229;-85
2023/06/03 10:31:03;;;;;;;;;;;;;;;17.21;24.10;101779.99;105549;1296;67488;-85
2023/06/03 10:33:49;;;;;;;;;;;;;;;17.30;24.11;101775.96;105557;1297;71206;-85
2023/06/03 10:36:35;;;;;;;;;;;;;;;17.32;24.07;101767.70;105605;1297;59081;-85
2023/06/03 10:39:24;;;;;;;;;;;;;;;17.33;24.37;101771.86;105613;1298;58870;-85
2023/06/03 10:42:10;;;;;;;;;;;;;;;17.32;24.39;101769.27;105619;1297;74583;-85
2023/06/03 10:44:56;;;;;;;;;;;;;;;17.29;24.37;101771.97;105542;1297;67304;-85
2023/06/03 10:47:44;;;;;;;;;;;;;;;17.24;24.52;101761.80;105592;1296;72349;-85
2023/06/03 10:50:30;;;;;;;;;;;;;;;17.32;24.43;101758.47;105585;1297;59019;-85
2023/06/03 10:53:34;;;;;;;;;;;;;;;17.42;24.26;101760.66;105546;1297;59127;-85
2023/06/03 10:56:31;;;;;;;;;;;;;;;17.45;24.55;101755.70;105504;1297;75561;-85
2023/06/03 10:59:18;;;;;;;;;;;;;;;17.45;24.60;101752.20;105564;1299;67298;-85
2023/06/03 11:02:04;;;;;;;;;;;;;;;17.52;24.90;101749.58;105479;1297;72047;-85
2023/06/03 11:05:10;;;;;;;;;;;;;;;17.58;24.74;101751.49;105561;1297;59065;-85
2023/06/03 11:07:56;;;;;;;;;;;;;;;17.62;24.79;101744.59;105565;1297;58917;-85
2023/06/03 11:10:43;;;;;;;;;;;;;;;17.67;24.77;101749.38;105550;1298;74887;-85
2023/06/03 11:13:42;;;;;;;;;;;;;;;17.62;24.80;101749.15;105493;1297;67454;-86
2023/06/03 11:16:28;;;;;;;;;;;;;;;17.55;24.89;101747.23;105453;1297;73025;-86
2023/06/03 11:19:29;;;;;;;;;;;;;;;17.57;24.98;101746.84;105500;1299;59461;-86
2023/06/03 11:22:27;;;;;;;;;;;;;;;17.57;25.11;101748.39;105542;1297;59708;-85
2023/06/03 11:25:26;;;;;;;;;;;;;;;17.55;25.06;101743.04;101523;1300;5158815;-85
2023/06/03 11:28:41;;;;;;;;;;;;;;;17.63;25.19;101742.66;105485;1297;68338;-85
2023/06/03 11:31:28;;;;;;;;;;;;;;;17.72;25.12;101740.84;104889;1306;72326;-86
2023/06/03 11:34:27;;;;;;;;;;;;;;;17.69;25.10;101737.59;104809;1305;59145;-86
2023/06/03 11:37:20;;;;;;;;;;;;;;;17.63;25.36;101736.04;100989;1305;5160329;-86
2023/06/03 11:40:07;;;;;;;;;;;;;;;17.63;25.31;101735.67;104836;1305;67631;-86
2023/06/03 11:42:54;;;;;;;;;;;;;;;17.68;25.40;101740.61;104803;1305;71390;-86
2023/06/03 11:52:09;;;;;;;;;;;;;;;17.78;25.52;101738.75;105650;1295;73259;-86
2023/06/03 11:54:55;;;;;;;;;;;;;;;17.85;25.53;101736.64;105451;1297;68555;-86
2023/06/03 11:57:41;;;;;;;;;;;;;;;17.88;25.55;101731.14;105470;1298;71434;-85
2023/06/03 12:00:27;;;;;;;;;;;;;;;17.91;25.59;101730.20;105616;1299;58981;-86
2023/06/03 12:03:14;;;;;;;;;;;;;;;17.92;25.78;101729.63;105422;1298;59030;-86
2023/06/03 12:06:02;;;;;;;;;;;;;;;17.88;25.71;101732.73;105436;1299;73396;-86
2023/06/03 12:08:49;;;;;;;;;;;;;;;17.91;25.78;101732.48;105430;1299;68345;-86
2023/06/03 12:11:40;;;;;;;;;;;;;;;17.93;25.84;101725.06;105426;1300;71328;-86
2023/06/03 12:14:26;;;;;;;;;;;;;;;17.99;26.03;101723.84;105461;1299;59377;-86
2023/06/03 12:23:59;;;;;;;;;;;;;;;18.13;26.13;101719.25;105656;1298;67191;-86
2023/06/03 12:26:45;;;;;;;;;;;;;;;18.13;26.07;101719.09;105587;1299;71455;-86
2023/06/03 12:29:32;;;;;;;;;;;;;;;18.07;25.92;101713.34;105640;1297;59344;-86
2023/06/03 12:32:18;;;;;;;;;;;;;;;18.05;26.03;101709.01;105559;1298;59945;-86
2023/06/03 12:35:10;;;;;;;;;;;;;;;18.08;26.03;101706.13;105623;1297;74263;-86
2023/06/03 12:38:04;;;;;;;;;;;;;;;18.10;26.15;101700.83;105391;1297;68540;-86
2023/06/03 12:40:52;;;;;;;;;;;;;;;18.17;26.37;101698.01;105402;1303;73626;-86
2023/06/03 12:43:38;;;;;;;;;;;;;;;18.24;26.18;101690.45;105579;1298;59427;-86
2023/06/03 12:46:24;;;;;;;;;;;;;;;18.25;26.19;101683.79;105591;1297;58970;-86
2023/06/03 12:49:14;;;;;;;;;;;;;;;18.29;26.38;101688.19;105548;1301;74121;-86
2023/06/03 12:52:12;;;;;;;;;;;;;;;18.33;26.30;101690.36;105578;1297;67372;-86
2023/06/03 12:54:59;;;;;;;;;;;;;;;18.40;26.34;101687.14;105562;1297;71629;-86
2023/06/03 12:57:46;;;;;;;;;;;;;;;18.45;26.31;101688.03;105471;1297;59232;-86
2023/06/03 13:00:33;;;;;;;;;;;;;;;18.43;26.38;101684.08;105586;1297;60361;-86
2023/06/03 13:03:19;;;;;;;;;;;;;;;18.46;26.29;101679.27;105526;1298;72898;-86
2023/06/03 13:06:04;;;;;;;;;;;;;;;18.52;26.45;101676.64;105602;1297;67351;-86
2023/06/03 13:08:51;;;;;;;;;;;;;;;18.55;26.45;101674.63;105457;1297;71989;-86
2023/06/03 13:11:37;;;;;;;;;;;;;;;18.54;26.48;101675.02;105444;1299;59379;-86
2023/06/03 13:14:23;;;;;;;;;;;;;;;18.53;26.49;101669.78;105566;1297;59770;-86
2023/06/03 13:17:09;;;;;;;;;;;;;;;18.56;26.41;101665.36;105429;1299;72514;-86
2023/06/03 13:19:55;;;;;;;;;;;;;;;18.55;26.39;101664.67;105566;1298;67265;-86
2023/06/03 13:22:41;;;;;;;;;;;;;;;18.51;26.57;101655.54;105472;1298;71411;-86
2023/06/03 13:25:27;;;;;;;;;;;;;;;18.53;26.61;101650.75;105452;1297;59258;-86
2023/06/03 13:28:13;;;;;;;;;;;;;;;18.58;26.63;101650.29;105575;1297;60302;-86
2023/06/03 13:30:59;;;;;;;;;;;;;;;18.61;26.59;101650.20;105396;1297;73883;-86
2023/06/03 13:33:45;;;;;;;;;;;;;;;18.61;26.56;101648.11;105397;1297;68178;-86
2023/06/03 13:36:31;;;;;;;;;;;;;;;18.61;26.74;101647.23;105472;1297;72268;-86
2023/06/03 13:39:21;;;;;;;;;;;;;;;18.60;26.59;101651.26;105385;1297;59033;-86
2023/06/03 13:42:08;;;;;;;;;;;;;;;18.53;26.54;101650.93;105495;1297;59372;-86
2023/06/03 13:44:54;;;;;;;;;;;;;;;18.45;26.55;101644.38;105538;1298;73180;-86
2023/06/03 13:47:39;;;;;;;;;;;;;;;18.41;26.58;101642.23;105428;1299;68693;-86
2023/06/03 13:50:25;;;;;;;;;;;;;;;18.39;26.68;101641.27;105497;1297;71454;-86
2023/06/03 13:53:11;;;;;;;;;;;;;;;18.45;26.86;101637.41;105537;1297;58953;-86
2023/06/03 13:55:57;;;;;;;;;;;;;;;18.51;26.97;101640.70;105555;1298;59953;-86
2023/06/03 13:58:43;;;;;;;;;;;;;;;18.61;26.83;101637.98;105374;1297;73472;-86
2023/06/03 14:01:29;;;;;;;;;;;;;;;18.62;26.72;101636.36;105474;1299;67463;-86
2023/06/03 14:04:15;;;;;;;;;;;;;;;18.66;26.77;101632.40;105421;1297;71428;-86
2023/06/03 14:07:01;;;;;;;;;;;;;;;18.66;26.77;101629.08;105536;1297;59110;-87
2023/06/03 14:09:47;;;;;;;;;;;;;;;18.67;26.74;101632.34;105233;1297;92740;-86
2023/06/03 14:12:33;;;;;;;;;;;;;;;18.69;26.98;101626.88;105555;1297;74419;-86
2023/06/03 14:15:19;;;;;;;;;;;;;;;18.77;26.99;101625.52;105456;1297;67515;-86
2023/06/03 14:18:06;;;;;;;;;;;;;;;18.80;26.78;101621.41;105492;1297;71460;-86
2023/06/03 14:20:52;;;;;;;;;;;;;;;18.82;26.97;101619.39;105459;1297;59143;-86
2023/06/03 14:23:38;;;;;;;;;;;;;;;18.88;26.88;101621.67;105570;1297;59048;-86
2023/06/03 14:26:23;;;;;;;;;;;;;;;18.90;26.84;101621.58;105541;1297;73396;-86
2023/06/03 14:29:10;;;;;;;;;;;;;;;18.95;26.87;101614.41;105452;1297;66301;-86